sensor_id;sensor_type;location;lat;lon;timestamp;P1;durP1;ratioP1;P2;durP2;ratioP2
3881;SDS011;1956;53.482;10.238;2022-07-18T00:04:17;2.50;;;1.90;;
3881;SDS011;1956;53.482;10.238;2022-07-18T00:09:17;4.03;;;2.00;;
3881;SDS011;1956;53.482;10.238;2022-07-18T00:14:19;2.80;;;2.60;;
3881;SDS011;1956;53.482;10.238;2022-07-18T00:19:20;3.77;;;2.30;;
3881;SDS011;1956;53.482;10.238;2022-07-18T00:24:20;2.67;;;2.47;;
3881;SDS011;1956;53.482;10.238;2022-07-18T00:29:20;3.83;;;2.20;;
3881;SDS011;1956;53.482;10.238;2022-07-18T00:34:21;2.40;;;2.07;;
3881;SDS011;1956;53.482;10.238;2022-07-18T00:39:21;6.20;;;2.57;;
3881;SDS011;1956;53.482;10.238;2022-07-18T00:44:23;3.97;;;2.60;;
3881;SDS011;1956;53.482;10.238;2022-07-18T00:49:24;2.40;;;2.03;;
3881;SDS011;1956;53.482;10.238;2022-07-18T00:54:25;2.33;;;2.10;;
3881;SDS011;1956;53.482;10.238;2022-07-18T00:59:25;3.97;;;2.67;;
3881;SDS011;1956;53.482;10.238;2022-07-18T01:04:46;2.30;;;2.10;;
3881;SDS011;1956;53.482;10.238;2022-07-18T01:09:46;2.43;;;2.23;;
3881;SDS011;1956;53.482;10.238;2022-07-18T01:14:46;3.63;;;3.27;;
3881;SDS011;1956;53.482;10.238;2022-07-18T01:19:47;3.30;;;2.67;;
3881;SDS011;1956;53.482;10.238;2022-07-18T01:24:47;3.53;;;2.40;;
3881;SDS011;1956;53.482;10.238;2022-07-18T01:29:49;5.43;;;2.80;;
3881;SDS011;1956;53.482;10.238;2022-07-18T01:34:51;2.60;;;2.40;;
3881;SDS011;1956;53.482;10.238;2022-07-18T01:39:51;3.63;;;2.77;;
3881;SDS011;1956;53.482;10.238;2022-07-18T01:44:51;6.90;;;3.10;;
3881;SDS011;1956;53.482;10.238;2022-07-18T01:49:52;4.57;;;2.93;;
3881;SDS011;1956;53.482;10.238;2022-07-18T01:54:52;3.93;;;2.97;;
3881;SDS011;1956;53.482;10.238;2022-07-18T01:59:52;3.27;;;2.97;;
3881;SDS011;1956;53.482;10.238;2022-07-18T02:04:53;6.07;;;3.30;;
3881;SDS011;1956;53.482;10.238;2022-07-18T02:09:59;4.20;;;3.20;;
3881;SDS011;1956;53.482;10.238;2022-07-18T02:15:00;3.30;;;2.83;;
3881;SDS011;1956;53.482;10.238;2022-07-18T02:20:01;4.33;;;3.30;;
3881;SDS011;1956;53.482;10.238;2022-07-18T02:25:04;3.30;;;2.83;;
3881;SDS011;1956;53.482;10.238;2022-07-18T02:30:06;6.97;;;3.40;;
3881;SDS011;1956;53.482;10.238;2022-07-18T02:35:07;7.37;;;4.20;;
3881;SDS011;1956;53.482;10.238;2022-07-18T02:40:09;11.80;;;7.73;;
3881;SDS011;1956;53.482;10.238;2022-07-18T02:45:11;8.57;;;7.20;;
3881;SDS011;1956;53.482;10.238;2022-07-18T02:50:12;8.60;;;7.10;;
3881;SDS011;1956;53.482;10.238;2022-07-18T02:55:12;11.93;;;7.00;;
3881;SDS011;1956;53.482;10.238;2022-07-18T03:00:14;10.90;;;6.37;;
3881;SDS011;1956;53.482;10.238;2022-07-18T03:05:15;8.57;;;4.17;;
3881;SDS011;1956;53.482;10.238;2022-07-18T03:10:15;7.83;;;5.03;;
3881;SDS011;1956;53.482;10.238;2022-07-18T03:15:15;6.47;;;4.43;;
3881;SDS011;1956;53.482;10.238;2022-07-18T03:20:16;10.90;;;5.33;;
3881;SDS011;1956;53.482;10.238;2022-07-18T03:25:16;6.80;;;4.93;;
3881;SDS011;1956;53.482;10.238;2022-07-18T03:30:16;9.20;;;6.10;;
3881;SDS011;1956;53.482;10.238;2022-07-18T03:35:17;6.77;;;4.90;;
3881;SDS011;1956;53.482;10.238;2022-07-18T03:40:17;14.53;;;6.03;;
3881;SDS011;1956;53.482;10.238;2022-07-18T03:45:18;12.23;;;6.27;;
3881;SDS011;1956;53.482;10.238;2022-07-18T03:50:18;9.53;;;6.07;;
3881;SDS011;1956;53.482;10.238;2022-07-18T03:55:19;9.63;;;5.50;;
3881;SDS011;1956;53.482;10.238;2022-07-18T04:00:19;7.87;;;6.17;;
3881;SDS011;1956;53.482;10.238;2022-07-18T04:05:20;9.67;;;7.20;;
3881;SDS011;1956;53.482;10.238;2022-07-18T04:10:20;10.73;;;6.67;;
3881;SDS011;1956;53.482;10.238;2022-07-18T04:15:21;9.40;;;6.33;;
3881;SDS011;1956;53.482;10.238;2022-07-18T04:20:22;8.80;;;7.10;;
3881;SDS011;1956;53.482;10.238;2022-07-18T04:25:24;8.43;;;6.50;;
3881;SDS011;1956;53.482;10.238;2022-07-18T04:30:26;12.43;;;6.20;;
3881;SDS011;1956;53.482;10.238;2022-07-18T04:35:26;11.63;;;5.70;;
3881;SDS011;1956;53.482;10.238;2022-07-18T04:40:27;8.50;;;5.50;;
3881;SDS011;1956;53.482;10.238;2022-07-18T04:45:27;9.60;;;5.37;;
3881;SDS011;1956;53.482;10.238;2022-07-18T04:50:28;6.63;;;5.93;;
3881;SDS011;1956;53.482;10.238;2022-07-18T04:55:29;9.90;;;5.77;;
3881;SDS011;1956;53.482;10.238;2022-07-18T05:00:30;8.10;;;5.40;;
3881;SDS011;1956;53.482;10.238;2022-07-18T05:05:30;9.63;;;5.57;;
3881;SDS011;1956;53.482;10.238;2022-07-18T05:10:31;7.53;;;5.60;;
3881;SDS011;1956;53.482;10.238;2022-07-18T05:15:31;6.33;;;5.20;;
3881;SDS011;1956;53.482;10.238;2022-07-18T05:20:32;15.30;;;5.90;;
3881;SDS011;1956;53.482;10.238;2022-07-18T05:25:32;8.93;;;5.63;;
3881;SDS011;1956;53.482;10.238;2022-07-18T05:30:32;8.93;;;5.43;;
3881;SDS011;1956;53.482;10.238;2022-07-18T05:35:33;10.70;;;4.63;;
3881;SDS011;1956;53.482;10.238;2022-07-18T05:40:34;6.90;;;5.23;;
3881;SDS011;1956;53.482;10.238;2022-07-18T05:45:34;6.27;;;4.57;;
3881;SDS011;1956;53.482;10.238;2022-07-18T05:50:35;13.83;;;5.67;;
3881;SDS011;1956;53.482;10.238;2022-07-18T05:55:35;6.63;;;5.03;;
3881;SDS011;1956;53.482;10.238;2022-07-18T06:00:36;10.33;;;5.17;;
3881;SDS011;1956;53.482;10.238;2022-07-18T06:05:36;6.43;;;4.77;;
3881;SDS011;1956;53.482;10.238;2022-07-18T06:10:37;10.60;;;4.80;;
3881;SDS011;1956;53.482;10.238;2022-07-18T06:15:37;7.10;;;4.70;;
3881;SDS011;1956;53.482;10.238;2022-07-18T06:20:37;4.60;;;4.10;;
3881;SDS011;1956;53.482;10.238;2022-07-18T06:25:38;9.83;;;4.63;;
3881;SDS011;1956;53.482;10.238;2022-07-18T06:30:38;7.03;;;5.00;;
3881;SDS011;1956;53.482;10.238;2022-07-18T06:35:39;5.30;;;4.10;;
3881;SDS011;1956;53.482;10.238;2022-07-18T06:40:41;6.63;;;4.30;;
3881;SDS011;1956;53.482;10.238;2022-07-18T06:45:42;8.70;;;4.47;;
3881;SDS011;1956;53.482;10.238;2022-07-18T06:50:42;4.80;;;4.07;;
3881;SDS011;1956;53.482;10.238;2022-07-18T06:55:42;6.10;;;4.27;;
3881;SDS011;1956;53.482;10.238;2022-07-18T07:00:43;6.37;;;4.40;;
3881;SDS011;1956;53.482;10.238;2022-07-18T07:05:43;5.70;;;4.30;;
3881;SDS011;1956;53.482;10.238;2022-07-18T07:10:44;8.00;;;4.60;;
3881;SDS011;1956;53.482;10.238;2022-07-18T07:15:44;6.30;;;4.53;;
3881;SDS011;1956;53.482;10.238;2022-07-18T07:20:44;6.70;;;4.23;;
3881;SDS011;1956;53.482;10.238;2022-07-18T07:25:45;8.63;;;4.50;;
3881;SDS011;1956;53.482;10.238;2022-07-18T07:30:45;5.47;;;4.00;;
3881;SDS011;1956;53.482;10.238;2022-07-18T07:35:46;4.90;;;3.97;;
3881;SDS011;1956;53.482;10.238;2022-07-18T07:40:46;6.47;;;3.60;;
3881;SDS011;1956;53.482;10.238;2022-07-18T07:45:48;5.60;;;3.93;;
3881;SDS011;1956;53.482;10.238;2022-07-18T07:50:49;5.10;;;3.60;;
3881;SDS011;1956;53.482;10.238;2022-07-18T07:55:50;6.93;;;4.40;;
3881;SDS011;1956;53.482;10.238;2022-07-18T08:00:51;4.87;;;3.37;;
3881;SDS011;1956;53.482;10.238;2022-07-18T08:05:51;5.87;;;4.10;;
3881;SDS011;1956;53.482;10.238;2022-07-18T08:10:51;3.93;;;3.37;;
3881;SDS011;1956;53.482;10.238;2022-07-18T08:15:53;8.53;;;4.20;;
3881;SDS011;1956;53.482;10.238;2022-07-18T08:20:53;7.17;;;4.37;;
3881;SDS011;1956;53.482;10.238;2022-07-18T08:25:54;4.33;;;3.93;;
3881;SDS011;1956;53.482;10.238;2022-07-18T08:30:54;7.07;;;4.90;;
3881;SDS011;1956;53.482;10.238;2022-07-18T08:35:54;9.47;;;4.83;;
3881;SDS011;1956;53.482;10.238;2022-07-18T08:40:55;6.70;;;4.50;;
3881;SDS011;1956;53.482;10.238;2022-07-18T08:45:58;7.40;;;5.00;;
3881;SDS011;1956;53.482;10.238;2022-07-18T08:51:03;7.77;;;5.50;;
3881;SDS011;1956;53.482;10.238;2022-07-18T08:56:05;6.53;;;5.50;;
3881;SDS011;1956;53.482;10.238;2022-07-18T09:01:06;7.80;;;5.33;;
3881;SDS011;1956;53.482;10.238;2022-07-18T09:06:07;5.63;;;5.10;;
3881;SDS011;1956;53.482;10.238;2022-07-18T09:11:11;7.00;;;5.60;;
3881;SDS011;1956;53.482;10.238;2022-07-18T09:16:12;7.40;;;5.30;;
3881;SDS011;1956;53.482;10.238;2022-07-18T09:21:17;5.70;;;4.47;;
3881;SDS011;1956;53.482;10.238;2022-07-18T09:26:38;6.60;;;5.47;;
3881;SDS011;1956;53.482;10.238;2022-07-18T09:31:43;8.03;;;4.83;;
3881;SDS011;1956;53.482;10.238;2022-07-18T09:36:54;8.80;;;4.63;;
3881;SDS011;1956;53.482;10.238;2022-07-18T09:42:12;7.50;;;4.10;;
3881;SDS011;1956;53.482;10.238;2022-07-18T09:47:15;8.60;;;4.50;;
3881;SDS011;1956;53.482;10.238;2022-07-18T09:52:16;6.23;;;4.90;;
3881;SDS011;1956;53.482;10.238;2022-07-18T09:57:23;10.80;;;5.70;;
3881;SDS011;1956;53.482;10.238;2022-07-18T10:02:25;9.20;;;4.90;;
3881;SDS011;1956;53.482;10.238;2022-07-18T10:07:25;9.37;;;5.03;;
3881;SDS011;1956;53.482;10.238;2022-07-18T10:12:25;8.97;;;5.17;;
3881;SDS011;1956;53.482;10.238;2022-07-18T10:17:26;5.87;;;4.40;;
3881;SDS011;1956;53.482;10.238;2022-07-18T10:22:27;10.50;;;4.63;;
3881;SDS011;1956;53.482;10.238;2022-07-18T10:27:27;8.23;;;4.63;;
3881;SDS011;1956;53.482;10.238;2022-07-18T10:32:48;9.80;;;5.37;;
3881;SDS011;1956;53.482;10.238;2022-07-18T10:37:48;9.87;;;4.77;;
3881;SDS011;1956;53.482;10.238;2022-07-18T10:59:14;7.83;;;5.87;;
3881;SDS011;1956;53.482;10.238;2022-07-18T11:04:37;5.13;;;4.57;;
3881;SDS011;1956;53.482;10.238;2022-07-18T11:09:46;6.10;;;5.40;;
3881;SDS011;1956;53.482;10.238;2022-07-18T11:25:37;7.90;;;5.10;;
3881;SDS011;1956;53.482;10.238;2022-07-18T11:30:38;5.33;;;3.77;;
3881;SDS011;1956;53.482;10.238;2022-07-18T11:35:39;5.97;;;4.63;;
3881;SDS011;1956;53.482;10.238;2022-07-18T11:40:49;5.53;;;4.63;;
3881;SDS011;1956;53.482;10.238;2022-07-18T11:51:25;7.10;;;4.03;;
3881;SDS011;1956;53.482;10.238;2022-07-18T11:56:25;9.20;;;4.20;;
3881;SDS011;1956;53.482;10.238;2022-07-18T12:01:32;4.30;;;3.90;;
3881;SDS011;1956;53.482;10.238;2022-07-18T12:06:32;5.63;;;4.77;;
3881;SDS011;1956;53.482;10.238;2022-07-18T12:11:33;4.63;;;4.23;;
3881;SDS011;1956;53.482;10.238;2022-07-18T12:16:36;4.80;;;3.67;;
3881;SDS011;1956;53.482;10.238;2022-07-18T12:21:52;4.30;;;3.90;;
3881;SDS011;1956;53.482;10.238;2022-07-18T12:32:42;5.07;;;3.77;;
3881;SDS011;1956;53.482;10.238;2022-07-18T12:38:03;5.87;;;3.30;;
3881;SDS011;1956;53.482;10.238;2022-07-18T12:43:06;6.90;;;3.20;;
3881;SDS011;1956;53.482;10.238;2022-07-18T12:48:14;4.90;;;3.53;;
3881;SDS011;1956;53.482;10.238;2022-07-18T12:53:15;6.77;;;3.53;;
3881;SDS011;1956;53.482;10.238;2022-07-18T12:58:15;7.60;;;3.70;;
3881;SDS011;1956;53.482;10.238;2022-07-18T13:03:16;3.70;;;3.40;;
3881;SDS011;1956;53.482;10.238;2022-07-18T13:08:16;3.47;;;2.83;;
3881;SDS011;1956;53.482;10.238;2022-07-18T13:13:19;3.93;;;3.20;;
3881;SDS011;1956;53.482;10.238;2022-07-18T13:18:19;3.63;;;3.33;;
3881;SDS011;1956;53.482;10.238;2022-07-18T13:23:19;3.40;;;3.03;;
3881;SDS011;1956;53.482;10.238;2022-07-18T13:28:20;6.77;;;3.30;;
3881;SDS011;1956;53.482;10.238;2022-07-18T13:33:20;4.13;;;3.47;;
3881;SDS011;1956;53.482;10.238;2022-07-18T13:38:21;5.50;;;2.93;;
3881;SDS011;1956;53.482;10.238;2022-07-18T13:43:21;3.17;;;2.87;;
3881;SDS011;1956;53.482;10.238;2022-07-18T13:48:21;3.93;;;2.70;;
3881;SDS011;1956;53.482;10.238;2022-07-18T13:53:22;3.27;;;2.70;;
3881;SDS011;1956;53.482;10.238;2022-07-18T13:58:22;3.33;;;2.30;;
3881;SDS011;1956;53.482;10.238;2022-07-18T14:03:22;4.10;;;2.70;;
3881;SDS011;1956;53.482;10.238;2022-07-18T14:08:23;3.33;;;2.67;;
3881;SDS011;1956;53.482;10.238;2022-07-18T14:13:23;2.70;;;2.50;;
3881;SDS011;1956;53.482;10.238;2022-07-18T14:18:24;7.47;;;2.80;;
3881;SDS011;1956;53.482;10.238;2022-07-18T14:23:24;3.13;;;2.13;;
3881;SDS011;1956;53.482;10.238;2022-07-18T14:28:24;3.63;;;2.00;;
3881;SDS011;1956;53.482;10.238;2022-07-18T14:33:25;5.93;;;2.43;;
3881;SDS011;1956;53.482;10.238;2022-07-18T14:38:25;4.43;;;1.87;;
3881;SDS011;1956;53.482;10.238;2022-07-18T14:43:25;2.67;;;2.47;;
3881;SDS011;1956;53.482;10.238;2022-07-18T14:48:26;3.20;;;1.97;;
3881;SDS011;1956;53.482;10.238;2022-07-18T14:53:26;5.87;;;2.17;;
3881;SDS011;1956;53.482;10.238;2022-07-18T14:58:26;5.40;;;2.50;;
3881;SDS011;1956;53.482;10.238;2022-07-18T15:03:27;1.83;;;1.73;;
3881;SDS011;1956;53.482;10.238;2022-07-18T15:08:27;1.70;;;1.60;;
3881;SDS011;1956;53.482;10.238;2022-07-18T15:13:28;2.40;;;2.20;;
3881;SDS011;1956;53.482;10.238;2022-07-18T15:18:28;2.53;;;2.30;;
3881;SDS011;1956;53.482;10.238;2022-07-18T15:23:28;3.80;;;2.00;;
3881;SDS011;1956;53.482;10.238;2022-07-18T15:28:29;2.90;;;2.40;;
3881;SDS011;1956;53.482;10.238;2022-07-18T15:33:29;2.50;;;2.30;;
3881;SDS011;1956;53.482;10.238;2022-07-18T15:38:30;2.20;;;2.00;;
3881;SDS011;1956;53.482;10.238;2022-07-18T15:43:30;2.40;;;2.20;;
3881;SDS011;1956;53.482;10.238;2022-07-18T15:48:30;2.63;;;2.43;;
3881;SDS011;1956;53.482;10.238;2022-07-18T15:53:31;3.57;;;2.47;;
3881;SDS011;1956;53.482;10.238;2022-07-18T15:58:32;3.27;;;2.50;;
3881;SDS011;1956;53.482;10.238;2022-07-18T16:03:33;3.30;;;2.77;;
3881;SDS011;1956;53.482;10.238;2022-07-18T16:08:33;3.57;;;2.67;;
3881;SDS011;1956;53.482;10.238;2022-07-18T16:13:33;4.67;;;2.93;;
3881;SDS011;1956;53.482;10.238;2022-07-18T16:18:34;4.40;;;3.43;;
3881;SDS011;1956;53.482;10.238;2022-07-18T16:23:34;5.43;;;3.53;;
3881;SDS011;1956;53.482;10.238;2022-07-18T16:28:34;3.10;;;2.80;;
3881;SDS011;1956;53.482;10.238;2022-07-18T16:33:35;4.00;;;3.50;;
3881;SDS011;1956;53.482;10.238;2022-07-18T16:38:35;9.07;;;4.20;;
3881;SDS011;1956;53.482;10.238;2022-07-18T16:43:36;5.07;;;3.13;;
3881;SDS011;1956;53.482;10.238;2022-07-18T16:48:37;3.40;;;3.10;;
3881;SDS011;1956;53.482;10.238;2022-07-18T16:53:38;3.67;;;3.30;;
3881;SDS011;1956;53.482;10.238;2022-07-18T16:58:39;5.00;;;2.87;;
3881;SDS011;1956;53.482;10.238;2022-07-18T17:03:40;3.23;;;2.93;;
3881;SDS011;1956;53.482;10.238;2022-07-18T17:08:40;4.10;;;2.73;;
3881;SDS011;1956;53.482;10.238;2022-07-18T17:13:41;5.03;;;3.80;;
3881;SDS011;1956;53.482;10.238;2022-07-18T17:18:42;4.60;;;4.00;;
3881;SDS011;1956;53.482;10.238;2022-07-18T17:23:46;5.03;;;3.70;;
3881;SDS011;1956;53.482;10.238;2022-07-18T17:28:47;6.30;;;3.70;;
3881;SDS011;1956;53.482;10.238;2022-07-18T17:33:48;4.20;;;3.10;;
3881;SDS011;1956;53.482;10.238;2022-07-18T17:38:49;6.40;;;4.23;;
3881;SDS011;1956;53.482;10.238;2022-07-18T17:43:49;8.13;;;4.80;;
3881;SDS011;1956;53.482;10.238;2022-07-18T17:48:51;7.40;;;3.97;;
3881;SDS011;1956;53.482;10.238;2022-07-18T17:53:51;7.30;;;4.20;;
3881;SDS011;1956;53.482;10.238;2022-07-18T17:58:52;4.07;;;3.73;;
3881;SDS011;1956;53.482;10.238;2022-07-18T18:03:54;4.07;;;3.53;;
3881;SDS011;1956;53.482;10.238;2022-07-18T18:08:56;6.47;;;3.90;;
3881;SDS011;1956;53.482;10.238;2022-07-18T18:13:57;4.87;;;3.60;;
3881;SDS011;1956;53.482;10.238;2022-07-18T18:18:57;4.13;;;3.57;;
3881;SDS011;1956;53.482;10.238;2022-07-18T18:23:58;5.60;;;4.40;;
3881;SDS011;1956;53.482;10.238;2022-07-18T18:28:58;3.63;;;2.93;;
3881;SDS011;1956;53.482;10.238;2022-07-18T18:33:59;6.93;;;4.10;;
3881;SDS011;1956;53.482;10.238;2022-07-18T18:38:59;5.20;;;3.93;;
3881;SDS011;1956;53.482;10.238;2022-07-18T18:43:59;5.07;;;4.30;;
3881;SDS011;1956;53.482;10.238;2022-07-18T18:49:00;7.53;;;4.63;;
3881;SDS011;1956;53.482;10.238;2022-07-18T18:54:00;11.23;;;4.90;;
3881;SDS011;1956;53.482;10.238;2022-07-18T18:59:01;16.80;;;4.17;;
3881;SDS011;1956;53.482;10.238;2022-07-18T19:04:01;13.93;;;4.80;;
3881;SDS011;1956;53.482;10.238;2022-07-18T19:09:04;13.23;;;6.00;;
3881;SDS011;1956;53.482;10.238;2022-07-18T19:14:05;18.37;;;10.00;;
3881;SDS011;1956;53.482;10.238;2022-07-18T19:19:06;21.40;;;13.87;;
3881;SDS011;1956;53.482;10.238;2022-07-18T19:24:06;17.60;;;11.33;;
3881;SDS011;1956;53.482;10.238;2022-07-18T19:29:06;13.20;;;8.30;;
3881;SDS011;1956;53.482;10.238;2022-07-18T19:34:07;7.80;;;5.00;;
3881;SDS011;1956;53.482;10.238;2022-07-18T19:39:07;7.20;;;4.90;;
3881;SDS011;1956;53.482;10.238;2022-07-18T19:44:08;6.63;;;4.60;;
3881;SDS011;1956;53.482;10.238;2022-07-18T19:49:09;4.70;;;4.30;;
3881;SDS011;1956;53.482;10.238;2022-07-18T19:54:09;6.80;;;4.40;;
3881;SDS011;1956;53.482;10.238;2022-07-18T19:59:10;10.00;;;4.37;;
3881;SDS011;1956;53.482;10.238;2022-07-18T20:04:10;9.70;;;5.30;;
3881;SDS011;1956;53.482;10.238;2022-07-18T20:09:10;5.97;;;4.87;;
3881;SDS011;1956;53.482;10.238;2022-07-18T20:14:11;5.60;;;4.80;;
3881;SDS011;1956;53.482;10.238;2022-07-18T20:19:11;11.33;;;4.83;;
3881;SDS011;1956;53.482;10.238;2022-07-18T20:24:12;8.43;;;5.10;;
3881;SDS011;1956;53.482;10.238;2022-07-18T20:29:12;7.17;;;4.83;;
3881;SDS011;1956;53.482;10.238;2022-07-18T20:34:12;5.80;;;4.80;;
3881;SDS011;1956;53.482;10.238;2022-07-18T20:39:14;10.10;;;5.40;;
3881;SDS011;1956;53.482;10.238;2022-07-18T20:44:15;14.73;;;5.60;;
3881;SDS011;1956;53.482;10.238;2022-07-18T20:49:15;7.77;;;5.33;;
3881;SDS011;1956;53.482;10.238;2022-07-18T20:54:16;7.70;;;5.37;;
3881;SDS011;1956;53.482;10.238;2022-07-18T20:59:16;12.90;;;5.43;;
3881;SDS011;1956;53.482;10.238;2022-07-18T21:04:17;9.70;;;6.00;;
3881;SDS011;1956;53.482;10.238;2022-07-18T21:09:17;8.23;;;5.30;;
3881;SDS011;1956;53.482;10.238;2022-07-18T21:14:17;7.30;;;5.27;;
3881;SDS011;1956;53.482;10.238;2022-07-18T21:19:36;8.10;;;5.83;;
3881;SDS011;1956;53.482;10.238;2022-07-18T21:24:37;5.53;;;5.03;;
3881;SDS011;1956;53.482;10.238;2022-07-18T21:29:37;7.23;;;5.80;;
3881;SDS011;1956;53.482;10.238;2022-07-18T21:34:38;8.20;;;5.20;;
3881;SDS011;1956;53.482;10.238;2022-07-18T21:39:39;6.30;;;4.93;;
3881;SDS011;1956;53.482;10.238;2022-07-18T21:44:39;7.03;;;5.27;;
3881;SDS011;1956;53.482;10.238;2022-07-18T21:49:40;6.10;;;5.03;;
3881;SDS011;1956;53.482;10.238;2022-07-18T21:54:40;7.50;;;4.80;;
3881;SDS011;1956;53.482;10.238;2022-07-18T21:59:41;7.30;;;5.23;;
3881;SDS011;1956;53.482;10.238;2022-07-18T22:04:41;7.53;;;4.83;;
3881;SDS011;1956;53.482;10.238;2022-07-18T22:09:43;9.10;;;5.13;;
3881;SDS011;1956;53.482;10.238;2022-07-18T22:14:44;7.50;;;5.70;;
3881;SDS011;1956;53.482;10.238;2022-07-18T22:19:44;6.00;;;5.27;;
3881;SDS011;1956;53.482;10.238;2022-07-18T22:24:44;8.77;;;5.00;;
3881;SDS011;1956;53.482;10.238;2022-07-18T22:29:45;7.63;;;5.33;;
3881;SDS011;1956;53.482;10.238;2022-07-18T22:34:45;9.13;;;5.50;;
3881;SDS011;1956;53.482;10.238;2022-07-18T22:39:45;5.87;;;4.57;;
3881;SDS011;1956;53.482;10.238;2022-07-18T22:44:46;6.20;;;5.30;;
3881;SDS011;1956;53.482;10.238;2022-07-18T22:49:46;8.30;;;5.83;;
3881;SDS011;1956;53.482;10.238;2022-07-18T22:54:46;7.03;;;5.30;;
3881;SDS011;1956;53.482;10.238;2022-07-18T22:59:47;11.37;;;5.70;;
3881;SDS011;1956;53.482;10.238;2022-07-18T23:04:47;11.40;;;5.63;;
3881;SDS011;1956;53.482;10.238;2022-07-18T23:09:48;10.27;;;5.87;;
3881;SDS011;1956;53.482;10.238;2022-07-18T23:14:49;11.33;;;5.97;;
3881;SDS011;1956;53.482;10.238;2022-07-18T23:19:49;9.00;;;5.87;;
3881;SDS011;1956;53.482;10.238;2022-07-18T23:24:49;7.13;;;5.27;;
3881;SDS011;1956;53.482;10.238;2022-07-18T23:29:50;10.40;;;5.90;;
3881;SDS011;1956;53.482;10.238;2022-07-18T23:34:50;8.77;;;5.67;;
3881;SDS011;1956;53.482;10.238;2022-07-18T23:39:51;7.90;;;5.40;;
3881;SDS011;1956;53.482;10.238;2022-07-18T23:44:51;9.57;;;6.07;;
3881;SDS011;1956;53.482;10.238;2022-07-18T23:49:52;10.00;;;5.83;;
3881;SDS011;1956;53.482;10.238;2022-07-18T23:54:52;7.37;;;5.37;;
3881;SDS011;1956;53.482;10.238;2022-07-18T23:59:53;9.53;;;6.33;;
